sensor_id;sensor_type;location;lat;lon;timestamp;temperature;humidity
64918;HTU21D;52176;44.858;38.372;2023-04-06T00:00:33;11.47;86.58
64918;HTU21D;52176;44.858;38.372;2023-04-06T00:02:59;11.54;87.04
64918;HTU21D;52176;44.858;38.372;2023-04-06T00:05:25;11.60;85.94
64918;HTU21D;52176;44.858;38.372;2023-04-06T00:07:51;11.56;86.74
64918;HTU21D;52176;44.858;38.372;2023-04-06T00:10:19;11.61;86.58
64918;HTU21D;52176;44.858;38.372;2023-04-06T00:12:45;11.70;86.20
64918;HTU21D;52176;44.858;38.372;2023-04-06T00:15:11;11.77;85.86
64918;HTU21D;52176;44.858;38.372;2023-04-06T00:17:37;11.82;85.57
64918;HTU21D;52176;44.858;38.372;2023-04-06T00:20:03;11.87;85.27
64918;HTU21D;52176;44.858;38.372;2023-04-06T00:22:29;11.88;84.48
64918;HTU21D;52176;44.858;38.372;2023-04-06T00:24:55;11.85;84.12
64918;HTU21D;52176;44.858;38.372;2023-04-06T00:27:21;11.72;83.79
64918;HTU21D;52176;44.858;38.372;2023-04-06T00:29:47;11.57;85.47
64918;HTU21D;52176;44.858;38.372;2023-04-06T00:32:13;11.61;85.71
64918;HTU21D;52176;44.858;38.372;2023-04-06T00:34:39;11.70;84.73
64918;HTU21D;52176;44.858;38.372;2023-04-06T00:37:05;11.62;84.22
64918;HTU21D;52176;44.858;38.372;2023-04-06T00:39:30;11.51;85.59
64918;HTU21D;52176;44.858;38.372;2023-04-06T00:41:56;11.54;84.72
64918;HTU21D;52176;44.858;38.372;2023-04-06T00:44:22;11.48;85.65
64918;HTU21D;52176;44.858;38.372;2023-04-06T00:46:48;11.57;85.63
64918;HTU21D;52176;44.858;38.372;2023-04-06T00:49:14;11.62;85.14
64918;HTU21D;52176;44.858;38.372;2023-04-06T00:51:40;11.72;84.27
64918;HTU21D;52176;44.858;38.372;2023-04-06T00:54:06;11.62;83.83
64918;HTU21D;52176;44.858;38.372;2023-04-06T00:56:34;11.46;83.43
64918;HTU21D;52176;44.858;38.372;2023-04-06T00:59:00;11.28;84.13
64918;HTU21D;52176;44.858;38.372;2023-04-06T01:01:26;11.31;83.58
64918;HTU21D;52176;44.858;38.372;2023-04-06T01:03:55;11.22;83.21
64918;HTU21D;52176;44.858;38.372;2023-04-06T01:06:22;11.12;83.13
64918;HTU21D;52176;44.858;38.372;2023-04-06T01:08:57;11.03;83.10
64918;HTU21D;52176;44.858;38.372;2023-04-06T01:11:25;10.94;84.57
64918;HTU21D;52176;44.858;38.372;2023-04-06T01:13:52;11.00;84.85
64918;HTU21D;52176;44.858;38.372;2023-04-06T01:16:26;11.11;84.53
64918;HTU21D;52176;44.858;38.372;2023-04-06T01:19:09;11.23;84.11
64918;HTU21D;52176;44.858;38.372;2023-04-06T01:21:36;11.30;83.67
64918;HTU21D;52176;44.858;38.372;2023-04-06T01:24:34;11.36;83.16
64918;HTU21D;52176;44.858;38.372;2023-04-06T01:26:59;11.42;82.48
64918;HTU21D;52176;44.858;38.372;2023-04-06T01:29:33;11.31;83.11
64918;HTU21D;52176;44.858;38.372;2023-04-06T01:32:01;11.33;82.88
64918;HTU21D;52176;44.858;38.372;2023-04-06T01:34:32;11.37;82.13
64918;HTU21D;52176;44.858;38.372;2023-04-06T01:37:02;11.26;82.64
64918;HTU21D;52176;44.858;38.372;2023-04-06T01:39:29;11.28;82.58
64918;HTU21D;52176;44.858;38.372;2023-04-06T01:41:55;11.34;81.86
64918;HTU21D;52176;44.858;38.372;2023-04-06T01:44:21;11.26;82.58
64918;HTU21D;52176;44.858;38.372;2023-04-06T01:46:54;11.31;82.70
64918;HTU21D;52176;44.858;38.372;2023-04-06T01:49:22;11.37;82.67
64918;HTU21D;52176;44.858;38.372;2023-04-06T01:51:52;11.43;82.55
64918;HTU21D;52176;44.858;38.372;2023-04-06T01:54:20;11.48;82.38
64918;HTU21D;52176;44.858;38.372;2023-04-06T01:56:55;11.53;81.62
64918;HTU21D;52176;44.858;38.372;2023-04-06T01:59:43;11.46;81.26
64918;HTU21D;52176;44.858;38.372;2023-04-06T02:02:19;11.32;82.43
64918;HTU21D;52176;44.858;38.372;2023-04-06T02:04:55;11.40;82.50
64918;HTU21D;52176;44.858;38.372;2023-04-06T02:07:21;11.47;82.34
64918;HTU21D;52176;44.858;38.372;2023-04-06T02:09:47;11.53;81.59
64918;HTU21D;52176;44.858;38.372;2023-04-06T02:12:22;11.47;82.09
64918;HTU21D;52176;44.858;38.372;2023-04-06T02:14:49;11.49;81.89
64918;HTU21D;52176;44.858;38.372;2023-04-06T02:17:15;11.53;81.81
64918;HTU21D;52176;44.858;38.372;2023-04-06T02:19:40;11.60;81.08
64918;HTU21D;52176;44.858;38.372;2023-04-06T02:22:06;11.48;80.73
64918;HTU21D;52176;44.858;38.372;2023-04-06T02:24:32;11.29;81.90
64918;HTU21D;52176;44.858;38.372;2023-04-06T02:26:58;11.28;82.23
64918;HTU21D;52176;44.858;38.372;2023-04-06T02:29:24;11.31;82.20
64918;HTU21D;52176;44.858;38.372;2023-04-06T02:31:50;11.37;81.41
64918;HTU21D;52176;44.858;38.372;2023-04-06T02:34:16;11.27;81.10
64918;HTU21D;52176;44.858;38.372;2023-04-06T02:36:49;11.18;81.01
64918;HTU21D;52176;44.858;38.372;2023-04-06T02:39:15;11.03;80.88
64918;HTU21D;52176;44.858;38.372;2023-04-06T02:41:41;10.86;83.45
64918;HTU21D;52176;44.858;38.372;2023-04-06T02:44:07;10.92;84.15
64918;HTU21D;52176;44.858;38.372;2023-04-06T02:46:40;11.00;83.00
64918;HTU21D;52176;44.858;38.372;2023-04-06T02:49:06;10.96;84.10
64918;HTU21D;52176;44.858;38.372;2023-04-06T02:51:34;11.04;84.39
64918;HTU21D;52176;44.858;38.372;2023-04-06T02:54:13;11.13;83.96
64918;HTU21D;52176;44.858;38.372;2023-04-06T02:56:39;11.19;83.09
64918;HTU21D;52176;44.858;38.372;2023-04-06T02:59:06;11.12;84.42
64918;HTU21D;52176;44.858;38.372;2023-04-06T03:01:32;11.14;84.46
64918;HTU21D;52176;44.858;38.372;2023-04-06T03:04:02;11.18;84.48
64918;HTU21D;52176;44.858;38.372;2023-04-06T03:06:29;11.20;84.37
64918;HTU21D;52176;44.858;38.372;2023-04-06T03:09:02;11.22;84.32
64918;HTU21D;52176;44.858;38.372;2023-04-06T03:11:30;11.26;83.45
64918;HTU21D;52176;44.858;38.372;2023-04-06T03:13:56;11.19;83.11
64918;HTU21D;52176;44.858;38.372;2023-04-06T03:16:22;11.10;82.94
64918;HTU21D;52176;44.858;38.372;2023-04-06T03:18:48;11.00;82.91
64918;HTU21D;52176;44.858;38.372;2023-04-06T03:21:13;10.94;82.80
64918;HTU21D;52176;44.858;38.372;2023-04-06T03:23:48;10.86;82.62
64918;HTU21D;52176;44.858;38.372;2023-04-06T03:26:16;10.75;82.45
64918;HTU21D;52176;44.858;38.372;2023-04-06T03:28:42;10.68;82.61
64918;HTU21D;52176;44.858;38.372;2023-04-06T03:31:08;10.63;82.68
64918;HTU21D;52176;44.858;38.372;2023-04-06T03:33:45;10.62;85.45
64918;HTU21D;52176;44.858;38.372;2023-04-06T03:36:22;10.70;84.44
64918;HTU21D;52176;44.858;38.372;2023-04-06T03:38:47;10.73;83.93
64918;HTU21D;52176;44.858;38.372;2023-04-06T03:41:14;10.73;85.97
64918;HTU21D;52176;44.858;38.372;2023-04-06T03:43:45;10.90;86.46
64918;HTU21D;52176;44.858;38.372;2023-04-06T03:46:11;11.08;85.68
64918;HTU21D;52176;44.858;38.372;2023-04-06T03:48:37;11.23;85.27
64918;HTU21D;52176;44.858;38.372;2023-04-06T03:51:05;11.37;84.94
64918;HTU21D;52176;44.858;38.372;2023-04-06T03:53:31;11.48;85.34
64918;HTU21D;52176;44.858;38.372;2023-04-06T03:55:56;11.59;84.29
64918;HTU21D;52176;44.858;38.372;2023-04-06T03:58:22;11.57;85.11
64918;HTU21D;52176;44.858;38.372;2023-04-06T04:00:48;11.66;85.10
64918;HTU21D;52176;44.858;38.372;2023-04-06T04:03:14;11.74;85.26
64918;HTU21D;52176;44.858;38.372;2023-04-06T04:05:41;11.84;84.76
64918;HTU21D;52176;44.858;38.372;2023-04-06T04:08:08;11.91;84.29
64918;HTU21D;52176;44.858;38.372;2023-04-06T04:10:33;12.03;83.42
64918;HTU21D;52176;44.858;38.372;2023-04-06T04:12:59;11.99;82.96
64918;HTU21D;52176;44.858;38.372;2023-04-06T04:15:25;11.96;82.77
64918;HTU21D;52176;44.858;38.372;2023-04-06T04:17:51;11.84;82.57
64918;HTU21D;52176;44.858;38.372;2023-04-06T04:20:17;11.75;82.59
64918;HTU21D;52176;44.858;38.372;2023-04-06T04:22:42;11.66;82.65
64918;HTU21D;52176;44.858;38.372;2023-04-06T04:25:09;11.58;82.71
64918;HTU21D;52176;44.858;38.372;2023-04-06T04:27:40;11.49;85.41
64918;HTU21D;52176;44.858;38.372;2023-04-06T04:30:06;11.57;84.46
64918;HTU21D;52176;44.858;38.372;2023-04-06T04:32:32;11.60;83.97
64918;HTU21D;52176;44.858;38.372;2023-04-06T04:35:01;11.55;83.52
64918;HTU21D;52176;44.858;38.372;2023-04-06T04:37:35;11.48;83.44
64918;HTU21D;52176;44.858;38.372;2023-04-06T04:40:02;11.42;85.88
64918;HTU21D;52176;44.858;38.372;2023-04-06T04:42:32;11.49;86.74
64918;HTU21D;52176;44.858;38.372;2023-04-06T04:44:59;11.60;85.55
64918;HTU21D;52176;44.858;38.372;2023-04-06T04:47:34;11.58;86.38
64918;HTU21D;52176;44.858;38.372;2023-04-06T04:50:00;11.70;85.32
64918;HTU21D;52176;44.858;38.372;2023-04-06T04:52:26;11.64;84.72
64918;HTU21D;52176;44.858;38.372;2023-04-06T04:55:02;11.56;84.41
64918;HTU21D;52176;44.858;38.372;2023-04-06T04:57:28;11.45;84.10
64918;HTU21D;52176;44.858;38.372;2023-04-06T04:59:54;11.40;84.12
64918;HTU21D;52176;44.858;38.372;2023-04-06T05:02:21;11.36;84.17
64918;HTU21D;52176;44.858;38.372;2023-04-06T05:05:05;11.39;86.16
64918;HTU21D;52176;44.858;38.372;2023-04-06T05:07:32;11.53;86.09
64918;HTU21D;52176;44.858;38.372;2023-04-06T05:10:00;11.66;85.13
64918;HTU21D;52176;44.858;38.372;2023-04-06T05:12:29;11.82;84.22
64918;HTU21D;52176;44.858;38.372;2023-04-06T05:15:04;11.77;83.63
64918;HTU21D;52176;44.858;38.372;2023-04-06T05:17:30;11.77;83.55
64918;HTU21D;52176;44.858;38.372;2023-04-06T05:19:56;11.73;83.35
64918;HTU21D;52176;44.858;38.372;2023-04-06T05:22:24;11.70;83.09
64918;HTU21D;52176;44.858;38.372;2023-04-06T05:25:01;11.69;83.16
64918;HTU21D;52176;44.858;38.372;2023-04-06T05:27:29;11.64;82.94
64918;HTU21D;52176;44.858;38.372;2023-04-06T05:29:55;11.64;82.92
64918;HTU21D;52176;44.858;38.372;2023-04-06T05:32:23;11.58;84.19
64918;HTU21D;52176;44.858;38.372;2023-04-06T05:34:51;11.69;84.42
64918;HTU21D;52176;44.858;38.372;2023-04-06T05:37:16;11.81;84.28
64918;HTU21D;52176;44.858;38.372;2023-04-06T05:39:42;11.96;83.36
64918;HTU21D;52176;44.858;38.372;2023-04-06T05:42:09;11.91;83.99
64918;HTU21D;52176;44.858;38.372;2023-04-06T05:45:11;12.00;82.90
64918;HTU21D;52176;44.858;38.372;2023-04-06T05:47:45;11.93;82.61
64918;HTU21D;52176;44.858;38.372;2023-04-06T05:50:21;11.88;82.49
64918;HTU21D;52176;44.858;38.372;2023-04-06T05:52:47;11.75;82.37
64918;HTU21D;52176;44.858;38.372;2023-04-06T05:55:16;11.59;83.78
64918;HTU21D;52176;44.858;38.372;2023-04-06T05:57:47;11.71;84.51
64918;HTU21D;52176;44.858;38.372;2023-04-06T06:00:17;11.91;83.42
64918;HTU21D;52176;44.858;38.372;2023-04-06T06:02:53;11.92;84.00
64918;HTU21D;52176;44.858;38.372;2023-04-06T06:05:23;12.07;83.85
64918;HTU21D;52176;44.858;38.372;2023-04-06T06:07:50;12.27;82.81
64918;HTU21D;52176;44.858;38.372;2023-04-06T06:10:15;12.26;82.24
64918;HTU21D;52176;44.858;38.372;2023-04-06T06:12:41;12.11;83.13
64918;HTU21D;52176;44.858;38.372;2023-04-06T06:15:07;12.19;83.30
64918;HTU21D;52176;44.858;38.372;2023-04-06T06:17:38;12.37;82.38
64918;HTU21D;52176;44.858;38.372;2023-04-06T06:20:07;12.33;83.25
64918;HTU21D;52176;44.858;38.372;2023-04-06T06:22:33;12.52;82.29
64918;HTU21D;52176;44.858;38.372;2023-04-06T06:24:59;12.62;81.86
64918;HTU21D;52176;44.858;38.372;2023-04-06T06:27:25;12.59;81.49
64918;HTU21D;52176;44.858;38.372;2023-04-06T06:29:51;12.64;81.46
64918;HTU21D;52176;44.858;38.372;2023-04-06T06:32:18;12.64;81.27
64918;HTU21D;52176;44.858;38.372;2023-04-06T06:34:47;12.61;83.23
64918;HTU21D;52176;44.858;38.372;2023-04-06T06:37:13;12.78;83.02
64918;HTU21D;52176;44.858;38.372;2023-04-06T06:39:39;13.03;81.95
64918;HTU21D;52176;44.858;38.372;2023-04-06T06:42:06;13.03;81.91
64918;HTU21D;52176;44.858;38.372;2023-04-06T06:45:01;13.24;81.05
64918;HTU21D;52176;44.858;38.372;2023-04-06T06:47:27;13.37;80.79
64918;HTU21D;52176;44.858;38.372;2023-04-06T06:49:52;13.37;80.43
64918;HTU21D;52176;44.858;38.372;2023-04-06T06:52:18;13.30;81.16
64918;HTU21D;52176;44.858;38.372;2023-04-06T06:54:44;13.44;80.48
64918;HTU21D;52176;44.858;38.372;2023-04-06T06:57:10;13.76;79.82
64918;HTU21D;52176;44.858;38.372;2023-04-06T06:59:37;13.90;79.35
64918;HTU21D;52176;44.858;38.372;2023-04-06T07:02:03;14.00;79.70
64918;HTU21D;52176;44.858;38.372;2023-04-06T07:04:29;14.48;78.76
64918;HTU21D;52176;44.858;38.372;2023-04-06T07:06:54;14.58;76.57
64918;HTU21D;52176;44.858;38.372;2023-04-06T07:09:21;14.79;76.74
64918;HTU21D;52176;44.858;38.372;2023-04-06T07:11:47;15.18;76.27
64918;HTU21D;52176;44.858;38.372;2023-04-06T07:14:15;15.26;75.85
64918;HTU21D;52176;44.858;38.372;2023-04-06T07:16:42;15.31;75.63
64918;HTU21D;52176;44.858;38.372;2023-04-06T07:19:11;15.24;75.53
64918;HTU21D;52176;44.858;38.372;2023-04-06T07:21:37;15.10;75.52
64918;HTU21D;52176;44.858;38.372;2023-04-06T07:24:03;15.01;75.68
64918;HTU21D;52176;44.858;38.372;2023-04-06T07:26:29;14.97;75.76
64918;HTU21D;52176;44.858;38.372;2023-04-06T07:28:56;14.91;75.64
64918;HTU21D;52176;44.858;38.372;2023-04-06T07:31:24;14.82;75.76
64918;HTU21D;52176;44.858;38.372;2023-04-06T07:33:50;14.74;75.83
64918;HTU21D;52176;44.858;38.372;2023-04-06T07:36:17;14.69;76.03
64918;HTU21D;52176;44.858;38.372;2023-04-06T07:38:43;14.60;76.06
64918;HTU21D;52176;44.858;38.372;2023-04-06T07:41:12;14.48;76.26
64918;HTU21D;52176;44.858;38.372;2023-04-06T07:43:39;14.35;76.52
64918;HTU21D;52176;44.858;38.372;2023-04-06T07:46:06;14.23;76.63
64918;HTU21D;52176;44.858;38.372;2023-04-06T07:48:32;14.10;76.67
64918;HTU21D;52176;44.858;38.372;2023-04-06T07:51:05;13.98;76.92
64918;HTU21D;52176;44.858;38.372;2023-04-06T07:53:36;13.94;76.95
64918;HTU21D;52176;44.858;38.372;2023-04-06T07:59:56;13.95;76.84
64918;HTU21D;52176;44.858;38.372;2023-04-06T08:02:22;14.01;76.79
64918;HTU21D;52176;44.858;38.372;2023-04-06T08:04:48;14.10;76.73
64918;HTU21D;52176;44.858;38.372;2023-04-06T08:07:14;14.24;76.54
64918;HTU21D;52176;44.858;38.372;2023-04-06T08:09:40;14.29;76.11
64918;HTU21D;52176;44.858;38.372;2023-04-06T08:12:06;14.30;76.13
64918;HTU21D;52176;44.858;38.372;2023-04-06T08:14:51;14.34;76.14
64918;HTU21D;52176;44.858;38.372;2023-04-06T08:17:17;14.39;75.98
64918;HTU21D;52176;44.858;38.372;2023-04-06T08:20:01;14.39;75.85
64918;HTU21D;52176;44.858;38.372;2023-04-06T08:22:29;14.41;75.67
64918;HTU21D;52176;44.858;38.372;2023-04-06T08:25:13;14.39;75.57
64918;HTU21D;52176;44.858;38.372;2023-04-06T08:27:39;14.40;75.64
64918;HTU21D;52176;44.858;38.372;2023-04-06T08:30:06;14.49;75.61
64918;HTU21D;52176;44.858;38.372;2023-04-06T08:32:50;14.51;75.14
64918;HTU21D;52176;44.858;38.372;2023-04-06T08:38:39;14.39;75.37
64918;HTU21D;52176;44.858;38.372;2023-04-06T08:41:23;14.34;75.33
64918;HTU21D;52176;44.858;38.372;2023-04-06T08:44:08;14.22;75.23
64918;HTU21D;52176;44.858;38.372;2023-04-06T08:46:53;14.17;75.26
64918;HTU21D;52176;44.858;38.372;2023-04-06T08:49:20;14.17;75.22
64918;HTU21D;52176;44.858;38.372;2023-04-06T08:51:47;14.20;75.05
64918;HTU21D;52176;44.858;38.372;2023-04-06T08:54:32;14.24;74.89
64918;HTU21D;52176;44.858;38.372;2023-04-06T08:56:58;14.26;74.64
64918;HTU21D;52176;44.858;38.372;2023-04-06T08:59:25;14.24;74.55
64918;HTU21D;52176;44.858;38.372;2023-04-06T09:01:51;14.20;74.56
64918;HTU21D;52176;44.858;38.372;2023-04-06T09:04:18;14.19;74.62
64918;HTU21D;52176;44.858;38.372;2023-04-06T09:06:44;14.22;74.73
64918;HTU21D;52176;44.858;38.372;2023-04-06T09:09:10;14.33;74.58
64918;HTU21D;52176;44.858;38.372;2023-04-06T09:11:50;14.42;74.31
64918;HTU21D;52176;44.858;38.372;2023-04-06T09:14:36;14.56;73.99
64918;HTU21D;52176;44.858;38.372;2023-04-06T09:17:06;14.68;73.64
64918;HTU21D;52176;44.858;38.372;2023-04-06T09:19:32;14.74;73.29
64918;HTU21D;52176;44.858;38.372;2023-04-06T09:22:17;14.79;72.99
64918;HTU21D;52176;44.858;38.372;2023-04-06T09:27:59;14.73;72.67
64918;HTU21D;52176;44.858;38.372;2023-04-06T09:30:26;14.67;72.60
64918;HTU21D;52176;44.858;38.372;2023-04-06T09:33:11;14.58;72.70
64918;HTU21D;52176;44.858;38.372;2023-04-06T09:35:37;14.55;72.69
64918;HTU21D;52176;44.858;38.372;2023-04-06T09:38:10;14.54;72.75
64918;HTU21D;52176;44.858;38.372;2023-04-06T09:40:48;14.59;72.79
64918;HTU21D;52176;44.858;38.372;2023-04-06T09:46:07;14.77;72.37
64918;HTU21D;52176;44.858;38.372;2023-04-06T09:51:41;15.08;71.84
64918;HTU21D;52176;44.858;38.372;2023-04-06T09:54:50;15.26;71.66
64918;HTU21D;52176;44.858;38.372;2023-04-06T10:00:25;15.23;71.35
64918;HTU21D;52176;44.858;38.372;2023-04-06T10:03:20;15.11;71.61
64918;HTU21D;52176;44.858;38.372;2023-04-06T10:08:55;15.01;71.52
64918;HTU21D;52176;44.858;38.372;2023-04-06T10:14:07;14.87;71.39
64918;HTU21D;52176;44.858;38.372;2023-04-06T10:16:33;14.77;71.35
64918;HTU21D;52176;44.858;38.372;2023-04-06T10:19:51;14.71;71.42
64918;HTU21D;52176;44.858;38.372;2023-04-06T10:25:56;14.73;71.40
64918;HTU21D;52176;44.858;38.372;2023-04-06T10:28:23;14.78;71.17
64918;HTU21D;52176;44.858;38.372;2023-04-06T10:31:00;14.81;71.25
64918;HTU21D;52176;44.858;38.372;2023-04-06T10:33:27;14.92;71.26
64918;HTU21D;52176;44.858;38.372;2023-04-06T10:35:53;14.94;70.91
64918;HTU21D;52176;44.858;38.372;2023-04-06T10:38:21;14.91;70.93
64918;HTU21D;52176;44.858;38.372;2023-04-06T10:40:48;14.88;71.06
64918;HTU21D;52176;44.858;38.372;2023-04-06T10:43:34;14.91;71.00
64918;HTU21D;52176;44.858;38.372;2023-04-06T10:46:25;14.91;70.75
64918;HTU21D;52176;44.858;38.372;2023-04-06T10:51:55;14.92;70.68
64918;HTU21D;52176;44.858;38.372;2023-04-06T10:54:22;14.93;70.67
64918;HTU21D;52176;44.858;38.372;2023-04-06T10:56:49;14.96;70.57
64918;HTU21D;52176;44.858;38.372;2023-04-06T10:59:20;14.96;70.35
64918;HTU21D;52176;44.858;38.372;2023-04-06T11:01:47;14.93;70.35
64918;HTU21D;52176;44.858;38.372;2023-04-06T11:04:19;14.88;70.35
64918;HTU21D;52176;44.858;38.372;2023-04-06T11:06:49;14.84;70.44
64918;HTU21D;52176;44.858;38.372;2023-04-06T11:09:28;14.82;70.34
64918;HTU21D;52176;44.858;38.372;2023-04-06T11:11:54;14.78;70.26
64918;HTU21D;52176;44.858;38.372;2023-04-06T11:14:21;14.69;70.33
64918;HTU21D;52176;44.858;38.372;2023-04-06T11:16:47;14.62;70.59
64918;HTU21D;52176;44.858;38.372;2023-04-06T11:19:16;14.58;70.78
64918;HTU21D;52176;44.858;38.372;2023-04-06T11:21:45;14.55;70.86
64918;HTU21D;52176;44.858;38.372;2023-04-06T11:26:46;14.24;70.98
64918;HTU21D;52176;44.858;38.372;2023-04-06T11:29:16;14.19;71.35
64918;HTU21D;52176;44.858;38.372;2023-04-06T11:31:45;14.19;71.56
64918;HTU21D;52176;44.858;38.372;2023-04-06T11:34:15;14.23;71.42
64918;HTU21D;52176;44.858;38.372;2023-04-06T11:36:43;14.21;71.38
64918;HTU21D;52176;44.858;38.372;2023-04-06T11:39:09;14.19;71.42
64918;HTU21D;52176;44.858;38.372;2023-04-06T11:41:36;14.18;71.52
64918;HTU21D;52176;44.858;38.372;2023-04-06T11:44:02;14.21;71.49
64918;HTU21D;52176;44.858;38.372;2023-04-06T11:46:28;14.21;71.45
64918;HTU21D;52176;44.858;38.372;2023-04-06T11:48:58;14.21;71.45
64918;HTU21D;52176;44.858;38.372;2023-04-06T11:51:26;14.15;71.35
64918;HTU21D;52176;44.858;38.372;2023-04-06T11:53:53;14.07;71.40
64918;HTU21D;52176;44.858;38.372;2023-04-06T11:56:23;14.00;71.56
64918;HTU21D;52176;44.858;38.372;2023-04-06T11:58:50;14.00;71.63
64918;HTU21D;52176;44.858;38.372;2023-04-06T12:01:16;14.01;71.52
64918;HTU21D;52176;44.858;38.372;2023-04-06T12:03:42;13.93;71.45
64918;HTU21D;52176;44.858;38.372;2023-04-06T12:06:08;13.85;71.58
64918;HTU21D;52176;44.858;38.372;2023-04-06T12:08:34;13.84;71.71
64918;HTU21D;52176;44.858;38.372;2023-04-06T12:11:00;13.75;71.75
64918;HTU21D;52176;44.858;38.372;2023-04-06T12:13:27;13.68;71.82
64918;HTU21D;52176;44.858;38.372;2023-04-06T12:15:53;13.61;71.92
64918;HTU21D;52176;44.858;38.372;2023-04-06T12:18:20;13.55;71.99
64918;HTU21D;52176;44.858;38.372;2023-04-06T12:20:47;13.51;72.08
64918;HTU21D;52176;44.858;38.372;2023-04-06T12:23:13;13.46;72.22
64918;HTU21D;52176;44.858;38.372;2023-04-06T12:25:40;13.41;72.30
64918;HTU21D;52176;44.858;38.372;2023-04-06T12:28:06;13.37;72.34
64918;HTU21D;52176;44.858;38.372;2023-04-06T12:30:35;13.36;72.34
64918;HTU21D;52176;44.858;38.372;2023-04-06T12:33:01;13.33;72.35
64918;HTU21D;52176;44.858;38.372;2023-04-06T12:35:27;13.31;72.47
64918;HTU21D;52176;44.858;38.372;2023-04-06T12:37:53;13.30;72.54
64918;HTU21D;52176;44.858;38.372;2023-04-06T12:40:20;13.29;72.56
64918;HTU21D;52176;44.858;38.372;2023-04-06T12:42:46;13.31;72.58
64918;HTU21D;52176;44.858;38.372;2023-04-06T12:45:12;13.31;72.53
64918;HTU21D;52176;44.858;38.372;2023-04-06T12:47:38;13.31;72.67
64918;HTU21D;52176;44.858;38.372;2023-04-06T12:50:05;13.33;72.65
64918;HTU21D;52176;44.858;38.372;2023-04-06T12:52:31;13.32;72.58
64918;HTU21D;52176;44.858;38.372;2023-04-06T12:55:02;13.31;72.66
64918;HTU21D;52176;44.858;38.372;2023-04-06T12:57:28;13.31;72.64
64918;HTU21D;52176;44.858;38.372;2023-04-06T12:59:54;13.27;72.55
64918;HTU21D;52176;44.858;38.372;2023-04-06T13:02:20;13.25;72.57
64918;HTU21D;52176;44.858;38.372;2023-04-06T13:04:48;13.22;72.51
64918;HTU21D;52176;44.858;38.372;2023-04-06T13:07:14;13.18;72.53
64918;HTU21D;52176;44.858;38.372;2023-04-06T13:09:40;13.17;72.64
64918;HTU21D;52176;44.858;38.372;2023-04-06T13:12:06;13.19;72.58
64918;HTU21D;52176;44.858;38.372;2023-04-06T13:14:32;13.17;72.47
64918;HTU21D;52176;44.858;38.372;2023-04-06T13:16:58;13.12;72.45
64918;HTU21D;52176;44.858;38.372;2023-04-06T13:19:25;13.06;72.48
64918;HTU21D;52176;44.858;38.372;2023-04-06T13:21:52;13.02;72.50
64918;HTU21D;52176;44.858;38.372;2023-04-06T13:24:18;12.94;72.52
64918;HTU21D;52176;44.858;38.372;2023-04-06T13:26:45;12.89;72.61
64918;HTU21D;52176;44.858;38.372;2023-04-06T13:29:11;12.85;72.76
64918;HTU21D;52176;44.858;38.372;2023-04-06T13:35:31;12.71;73.06
64918;HTU21D;52176;44.858;38.372;2023-04-06T13:37:57;12.64;73.22
64918;HTU21D;52176;44.858;38.372;2023-04-06T13:40:23;12.59;73.38
64918;HTU21D;52176;44.858;38.372;2023-04-06T13:42:49;12.58;73.51
64918;HTU21D;52176;44.858;38.372;2023-04-06T13:45:16;12.58;73.66
64918;HTU21D;52176;44.858;38.372;2023-04-06T13:47:42;12.57;73.71
64918;HTU21D;52176;44.858;38.372;2023-04-06T13:50:08;12.55;73.81
64918;HTU21D;52176;44.858;38.372;2023-04-06T13:52:34;12.53;73.96
64918;HTU21D;52176;44.858;38.372;2023-04-06T13:55:01;12.55;76.84
64918;HTU21D;52176;44.858;38.372;2023-04-06T13:57:27;12.72;76.57
64918;HTU21D;52176;44.858;38.372;2023-04-06T13:59:55;12.89;75.47
64918;HTU21D;52176;44.858;38.372;2023-04-06T14:02:20;12.90;74.92
64918;HTU21D;52176;44.858;38.372;2023-04-06T14:04:52;12.86;74.77
64918;HTU21D;52176;44.858;38.372;2023-04-06T14:07:20;12.81;74.76
64918;HTU21D;52176;44.858;38.372;2023-04-06T14:09:46;12.75;74.77
64918;HTU21D;52176;44.858;38.372;2023-04-06T14:12:11;12.72;74.68
64918;HTU21D;52176;44.858;38.372;2023-04-06T14:14:37;12.64;74.67
64918;HTU21D;52176;44.858;38.372;2023-04-06T14:17:03;12.56;77.12
64918;HTU21D;52176;44.858;38.372;2023-04-06T14:19:29;12.62;76.28
64918;HTU21D;52176;44.858;38.372;2023-04-06T14:21:55;12.61;75.90
64918;HTU21D;52176;44.858;38.372;2023-04-06T14:24:21;12.55;77.72
64918;HTU21D;52176;44.858;38.372;2023-04-06T14:26:48;12.62;76.62
64918;HTU21D;52176;44.858;38.372;2023-04-06T14:29:14;12.51;76.12
64918;HTU21D;52176;44.858;38.372;2023-04-06T14:31:41;12.38;76.06
64918;HTU21D;52176;44.858;38.372;2023-04-06T14:34:06;12.30;76.06
64918;HTU21D;52176;44.858;38.372;2023-04-06T14:36:33;12.19;78.39
64918;HTU21D;52176;44.858;38.372;2023-04-06T14:39:05;12.29;78.17
64918;HTU21D;52176;44.858;38.372;2023-04-06T14:41:31;12.44;77.17
64918;HTU21D;52176;44.858;38.372;2023-04-06T14:43:57;12.43;76.68
64918;HTU21D;52176;44.858;38.372;2023-04-06T14:46:23;12.35;78.46
64918;HTU21D;52176;44.858;38.372;2023-04-06T14:48:49;12.47;77.40
64918;HTU21D;52176;44.858;38.372;2023-04-06T14:51:15;12.45;76.84
64918;HTU21D;52176;44.858;38.372;2023-04-06T14:53:42;12.37;76.53
64918;HTU21D;52176;44.858;38.372;2023-04-06T14:56:08;12.23;76.39
64918;HTU21D;52176;44.858;38.372;2023-04-06T14:58:34;12.12;76.44
64918;HTU21D;52176;44.858;38.372;2023-04-06T15:01:00;12.01;77.79
64918;HTU21D;52176;44.858;38.372;2023-04-06T15:03:26;12.10;77.05
64918;HTU21D;52176;44.858;38.372;2023-04-06T15:05:53;12.04;76.66
64918;HTU21D;52176;44.858;38.372;2023-04-06T15:08:19;12.00;76.55
64918;HTU21D;52176;44.858;38.372;2023-04-06T15:10:48;11.91;76.53
64918;HTU21D;52176;44.858;38.372;2023-04-06T15:13:14;11.85;76.65
64918;HTU21D;52176;44.858;38.372;2023-04-06T15:15:40;11.81;76.59
64918;HTU21D;52176;44.858;38.372;2023-04-06T15:18:07;11.76;76.47
64918;HTU21D;52176;44.858;38.372;2023-04-06T15:20:33;11.69;76.39
64918;HTU21D;52176;44.858;38.372;2023-04-06T15:26:35;11.49;76.33
64918;HTU21D;52176;44.858;38.372;2023-04-06T15:29:01;11.47;78.97
64918;HTU21D;52176;44.858;38.372;2023-04-06T15:31:27;11.58;79.79
64918;HTU21D;52176;44.858;38.372;2023-04-06T15:33:54;11.69;78.59
64918;HTU21D;52176;44.858;38.372;2023-04-06T15:36:24;11.67;77.97
64918;HTU21D;52176;44.858;38.372;2023-04-06T15:38:52;11.57;79.17
64918;HTU21D;52176;44.858;38.372;2023-04-06T15:41:18;11.66;79.41
64918;HTU21D;52176;44.858;38.372;2023-04-06T15:43:43;11.75;79.11
64918;HTU21D;52176;44.858;38.372;2023-04-06T15:46:09;11.82;78.70
64918;HTU21D;52176;44.858;38.372;2023-04-06T15:48:35;11.87;78.63
64918;HTU21D;52176;44.858;38.372;2023-04-06T15:51:01;11.93;78.57
64918;HTU21D;52176;44.858;38.372;2023-04-06T15:53:27;12.00;78.36